Pagrindinis puslapis
METAR-TAF:

METAR-TAF

Oro uostai :

Čangša, Kinija

platuma: 28-11N, ilguma: 113-13E, Aukštis: 66 m

Dabartinis oras

Ataskaita buvo paskelbta 1 valandą ir 0 minutes, ne 07:00 UTC
Vėjas 4 kt iš Šiaurės/Šiaurės Rytų, svyruoja nuo Šiaurės/Šiaurės Vakarų ir Rytų/Šiaurės Rytų
Temperatūra 10°C
Drėgmė 76%
Slėgis 1020 hPa
Matomumas: 5000 m
Išsisklaidę debesys ne aukštis 4000 ft
lietus, rūkana

METAR: ZGHA 210700Z 02002MPS 340V060 5000 -RA BR SCT040 10/06 Q1020 NOSIG

Laikas: 16:00 (08:00 UTC)

Prognozė

Ataskaita buvo paskelbta 5 valandos ir 25 minutes, ne 02:35 UTC
Prognozė galioja nuo 21 metu 06 UTC su 22 metu 06 UTC
Vėjas 8 kt iš Šiaurės
Matomumas: 3500 m
Apsiniaukę ne aukštis 4000 ft
rūkana
Laikinai
nuo 21 metu 22 UTC su 22 metu 04 UTC
Su prošvaistėmis ne aukštis 700 ft
Mažai debesys ne aukštis 4000 ft, Liūtiniai kamuoliniai debesys.
Su prošvaistėmis ne aukštis 5000 ft
lietus

TAF: ZGHA 210235Z 2106/2206 35004MPS 3500 BR OVC040 TX11/2107Z TN07/2122Z TEMPO 2122/2204 SHRA BKN007 FEW040CB BKN050

Orai ataskaitas ir orų prognozės (METAR, TAF).

turimą stotys yra geltonos ir raudonos taškus žemėlapyje.

Perkelti pele per norėdami pamatyti stoties vardą.

Tada spustelėkite, norėdami matyti oro stebėjimo ir prognozės.

Norėdami pakeisti žemėlapį: spustelėkite ant žalios mygtukų su juodo kryžiaus žemyn,; žalią mygtuką su brūkšneliu, jei norite nutolinti; arba žalių rodyklių gretimoms žemėlapius.


METAR-TAF: